WetterOnline ( http://www.wetteronline.de )

Wetter aktuell Osterfeld

Aktuelles Wetter: Osterfeld (246m)

6-stündlich | Neueste Meldungen
Ortszeit Temperatur Wetter
So, 22.07. 2:00 18.0° C bedeckt
Sa, 21.07. 20:00 19.1° C bedeckt
Sa, 21.07. 14:00 24.0° C bedeckt
Sa, 21.07. 8:00 18.6° C wolkenlos
Sa, 21.07. 2:00 18.7° C wolkig
Fr, 20.07. 20:00 26.2° C wolkenlos
Fr, 20.07. 14:00 26.0° C wolkig
Fr, 20.07. 8:00 17.4° C wolkenlos
Ortszeit Temperatur Wetter
So, 22.07. 6:30 16.7° C bedeckt
So, 22.07. 6:10 16.8° C bedeckt
So, 22.07. 6:00 16.8° C bedeckt
So, 22.07. 5:50 16.8° C bedeckt
So, 22.07. 5:40 16.8° C bedeckt
So, 22.07. 5:30 16.9° C bedeckt
So, 22.07. 5:00 17.0° C bedeckt
So, 22.07. 4:30 17.2° C bedeckt
So, 22.07. 4:00 17.5° C leichter Regen
So, 22.07. 3:30 17.6° C leichter Regen
Ortszeit Relative Feuchte Sichtweite
So, 22.07. 2:00 84% 11 km
Sa, 21.07. 20:00 81% 11 km
Sa, 21.07. 14:00 50% 11 km
Sa, 21.07. 8:00 59% 11 km
Sa, 21.07. 2:00 54% 11 km
Fr, 20.07. 20:00 32% 11 km
Fr, 20.07. 14:00 33% 11 km
Fr, 20.07. 8:00 67% 11 km
Ortszeit Relative Feuchte Sichtweite
So, 22.07. 6:30 92% 11 km
So, 22.07. 6:10 92% -
So, 22.07. 6:00 92% 11 km
So, 22.07. 5:50 92% -
So, 22.07. 5:40 92% -
So, 22.07. 5:30 92% 11 km
So, 22.07. 5:00 91% 11 km
So, 22.07. 4:30 90% 11 km
So, 22.07. 4:00 89% 11 km
So, 22.07. 3:30 88% 11 km
Ortszeit Niederschlagsmenge Niederschlagsart
So, 22.07. 2:00 0.1 l/m2 in 6 Std. Regen
Sa, 21.07. 20:00 0.1 l/m2 in 12 Std. Regen
Sa, 21.07. 14:00 0.0 l/m2 in 6 Std. -
Sa, 21.07. 8:00 0.0 l/m2 in 12 Std. -
Sa, 21.07. 2:00 0.0 l/m2 in 6 Std. -
Fr, 20.07. 20:00 0.0 l/m2 in 12 Std. -
Fr, 20.07. 14:00 0.0 l/m2 in 6 Std. -
Fr, 20.07. 8:00 0.0 l/m2 in 12 Std. -
Ortszeit Niederschlagsmenge Niederschlagsart
So, 22.07. 6:30 0.0 l/m2 in 1 Std. -
So, 22.07. 6:10 keine Meldung -
So, 22.07. 6:00 0.0 l/m2 in 1 Std. -
So, 22.07. 5:50 keine Meldung -
So, 22.07. 5:40 keine Meldung -
So, 22.07. 5:30 0.0 l/m2 in 1 Std. -
So, 22.07. 5:00 0.1 l/m2 in 1 Std. Regen
So, 22.07. 4:30 0.1 l/m2 in 1 Std. Schneeregen
So, 22.07. 4:00 0.1 l/m2 in 1 Std. Regen
So, 22.07. 3:30 0.1 l/m2 in 1 Std. -
Ortszeit Stärke Spitze Richtung
km/h Bft. km/h Grad Sektor
So, 22.07. 2:00 4 1 18 210° SW
Sa, 21.07. 20:00 7 2 32 280° W
Sa, 21.07. 14:00 11 2 22 190° S
Sa, 21.07. 8:00 7 2 18 50° NO
Sa, 21.07. 2:00 13 3 22 70° O
Fr, 20.07. 20:00 14 3 22 60° NO
Fr, 20.07. 14:00 7 2 18 70° O
Fr, 20.07. 8:00 - - - - -
Ortszeit Stärke Spitze Richtung
km/h Bft. km/h Grad Sektor
So, 22.07. 6:30 6 1 11 240° SW
So, 22.07. 6:10 6 1 - 230° SW
So, 22.07. 6:00 4 1 11 240° SW
So, 22.07. 5:50 4 1 - 240° SW
So, 22.07. 5:40 4 1 - 240° SW
So, 22.07. 5:30 7 2 11 250° W
So, 22.07. 5:00 6 1 11 240° SW
So, 22.07. 4:30 6 1 11 220° SW
So, 22.07. 4:00 7 2 14 230° SW
So, 22.07. 3:30 7 2 11 240° SW
Ortszeit Untergrenze Bedeckung Gattung
total tief tief mittel hoch
So, 22.07. 2:00 1230 m 8/8 8/8 - - -
Sa, 21.07. 20:00 3000 m 8/8 8/8 - - -
Sa, 21.07. 14:00 3900 m 8/8 8/8 - - -
Sa, 21.07. 8:00 - 0/8 0/8 - - -
Sa, 21.07. 2:00 8400 m 7/8 0/8 - - -
Fr, 20.07. 20:00 - 0/8 0/8 - - -
Fr, 20.07. 14:00 2100 m 5/8 4/8 - - -
Fr, 20.07. 8:00 - 0/8 0/8 - - -
Ortszeit Bedeckungsgrad in Achtel und Wolkenuntergrenze
So, 22.07. 6:30 8(2700m)
So, 22.07. 6:10 8(2700m)
So, 22.07. 6:00 8(2700m)
So, 22.07. 5:50 8(2700m)
So, 22.07. 5:40 8(2700m)
So, 22.07. 5:30 8(2700m)
So, 22.07. 5:00 1(1440m) 8(2700m)
So, 22.07. 4:30 1(1230m) 3(1800m) 8(2700m)
So, 22.07. 4:00 8(2100m)
So, 22.07. 3:30 1(1350m) 3(1800m) 8(2100m)
Ortszeit Luftdruck NN (hPa) Tendenz (hPa in 3 Std.)
So, 22.07. 2:00 1013 + 0,4
Sa, 21.07. 20:00 1011 - 0,8
Sa, 21.07. 14:00 1011 + 0,2
Sa, 21.07. 8:00 1011 - 0,4
Sa, 21.07. 2:00 1012 - 0,4
Fr, 20.07. 20:00 1011 - 0,9
Fr, 20.07. 14:00 1014 - 1,2
Fr, 20.07. 8:00 1016 - 0,2
Ortszeit Luftdruck NN (hPa) Tendenz (hPa in 3 Std.)
So, 22.07. 6:30 1013 + 0,2
So, 22.07. 6:10 1013 keine Meldung
So, 22.07. 6:00 1013 + 0,3
So, 22.07. 5:50 1013 keine Meldung
So, 22.07. 5:40 1013 keine Meldung
So, 22.07. 5:30 1013 + 0,3
So, 22.07. 5:00 1013 + 0,2
So, 22.07. 4:30 1013 + 0,3
So, 22.07. 4:00 1013 + 0,4
So, 22.07. 3:30 1013 + 0,4
Ortszeit Schneehöhe (cm)
So, 22.07. 2:00 -
Sa, 21.07. 20:00 -
Sa, 21.07. 14:00 -
Sa, 21.07. 8:00 -
Sa, 21.07. 2:00 -
Fr, 20.07. 20:00 -
Fr, 20.07. 14:00 -
Fr, 20.07. 8:00 -
Ortszeit Schneehöhe (cm)
So, 22.07. 6:30 -
So, 22.07. 6:10 -
So, 22.07. 6:00 -
So, 22.07. 5:50 -
So, 22.07. 5:40 -
So, 22.07. 5:30 -
So, 22.07. 5:00 -
So, 22.07. 4:30 -
So, 22.07. 4:00 -
So, 22.07. 3:30 -
Link zu dieser Seite / Seite empfehlen

Das Wetter in ...